Old Bridge Airport (3N6)
Old Bridge, NJ
Field Elevation: 87
Lat: 40°19.79N  Long: 74°20.81W
CTAF/Unicom Freq: 123.0750
   
     For Weather-by-Phone, call 732-446-0707
Weather Advisories
2021-06-17   18:13 Z
Altimeter 29.98" Hg
Wind 360° @ 4 KT
Gusts 14 KT
Visibility 10 SM
Ceiling CLR
Temperature 24° C (75° F)
Dewpoint 2° C (36° F)
Relative Humidity 22%
Density Altitude 1,100 feet
Condensation Altitude 11,500 feet
Wind and Runways
Indicated Runway = 06
Headwind = 2 kt
Crosswind = 4 kt
History
 
 
 
More Info
NOAA Forecast
 
 
About Us
Belfort Instrument
 
 
FAA Disclaimer: The data displayed is for advisory purposes only and is not to be used for flight planning or operations. For official data, please call 732-446-0707 to hear the current automated AWOS voice message.
  METAR 3N6 171813Z AUTO 36004G14KT 10 SM CLR 24/02 A2998